Time;durP1;ratioP1;P1;durP2;ratioP2;P2;SDS_P1;SDS_P2;PMS_P1;PMS_P2;Temp;Humidity;BMP_temperature;BMP_pressure;BME280_temperature;BME280_humidity;BME280_pressure;Samples;Min_cycle;Max_cycle;Signal;HPM_P1;HPM_P2
2022/09/07 00:02:15;;;;;;;8.68;5.13;;;15.40;99.90;;;;;;5195957;28;20080;-74
2022/09/07 00:04:46;;;;;;;6.35;5.47;;;15.40;99.90;;;;;;5178979;28;20060;-74
2022/09/07 00:07:21;;;;;;;7.53;6.28;;;15.40;99.90;;;;;;5195344;28;20041;-74
2022/09/07 00:09:58;;;;;;;5.80;5.20;;;15.50;99.90;;;;;;5209537;28;20040;-74
2022/09/07 00:12:39;;;;;;;7.32;5.95;;;15.50;99.90;;;;;;5203728;28;20045;-74
2022/09/07 00:15:13;;;;;;;6.45;5.82;;;15.50;99.90;;;;;;5216436;28;20044;-73
2022/09/07 00:17:49;;;;;;;7.10;6.40;;;15.50;99.90;;;;;;5217731;28;20359;-74
2022/09/07 00:20:24;;;;;;;9.20;6.43;;;15.40;99.90;;;;;;5217923;28;20082;-74
2022/09/07 00:22:59;;;;;;;6.95;6.25;;;15.40;99.90;;;;;;5214650;28;20338;-74
2022/09/07 00:25:33;;;;;;;6.55;5.95;;;15.30;99.90;;;;;;5217840;28;20025;-74
2022/09/07 00:28:15;;;;;;;9.40;6.50;;;15.30;99.90;;;;;;5200724;28;20033;-74
2022/09/07 00:30:47;;;;;;;8.00;6.22;;;15.30;99.90;;;;;;5195139;28;20404;-74
2022/09/07 00:33:36;;;;;;;6.63;5.82;;;15.20;99.90;;;;;;5193787;28;20043;-74
2022/09/07 00:36:09;;;;;;;8.55;6.40;;;15.20;99.90;;;;;;5217046;28;20044;-74
2022/09/07 00:38:46;;;;;;;8.05;6.47;;;15.20;99.90;;;;;;5215954;28;20035;-74
2022/09/07 00:41:21;;;;;;;7.03;6.32;;;15.20;99.90;;;;;;5233904;28;20059;-74
2022/09/07 00:44:18;;;;;;;8.13;6.80;;;15.20;99.90;;;;;;5199029;28;20047;-74
2022/09/07 00:46:52;;;;;;;7.47;6.57;;;15.20;99.90;;;;;;5198685;28;20041;-74
2022/09/07 00:49:24;;;;;;;;;;;15.20;99.90;;;;;;5206303;28;20050;-74
2022/09/07 00:52:04;;;;;;;8.68;5.47;;;15.20;99.90;;;;;;5225563;28;19916;-74
2022/09/07 00:54:48;;;;;;;8.40;6.93;;;15.20;99.90;;;;;;5196557;28;20387;-75
2022/09/07 00:57:22;;;;;;;11.18;6.72;;;15.20;99.90;;;;;;5211803;28;20352;-74
2022/09/07 01:00:01;;;;;;;8.90;6.47;;;15.10;99.90;;;;;;5206541;28;20032;-74
2022/09/07 01:02:38;;;;;;;9.10;6.95;;;15.00;99.90;;;;;;5201217;28;20403;-74
2022/09/07 01:05:34;;;;;;;7.53;6.72;;;15.00;99.90;;;;;;5205905;28;20561;-74
2022/09/07 01:08:16;;;;;;;9.05;6.80;;;15.00;99.90;;;;;;5189454;28;20242;-74
2022/09/07 01:10:53;;;;;;;7.95;6.82;;;15.00;99.90;;;;;;5227197;28;20353;-74
2022/09/07 01:13:26;;;;;;;7.82;6.85;;;15.00;99.90;;;;;;5203650;28;20059;-75
2022/09/07 01:16:17;;;;;;;9.48;7.40;;;15.00;99.90;;;;;;5219365;28;20056;-75
2022/09/07 01:19:20;;;;;;;8.75;6.97;;;14.90;99.90;;;;;;5231618;28;20036;-74
2022/09/07 01:21:57;;;;;;;11.70;7.18;;;14.90;99.90;;;;;;5244066;28;20035;-75
2022/09/07 01:24:50;;;;;;;8.88;7.18;;;14.90;99.90;;;;;;5239122;28;20035;-75
2022/09/07 01:27:47;;;;;;;9.07;7.05;;;14.90;99.90;;;;;;5218540;28;20108;-74
2022/09/07 01:30:23;;;;;;;7.72;6.32;;;14.90;99.90;;;;;;5213699;28;20045;-75
2022/09/07 01:33:03;;;;;;;7.78;6.47;;;14.80;99.90;;;;;;5201384;28;20056;-74
2022/09/07 01:35:56;;;;;;;7.43;6.60;;;14.80;99.90;;;;;;5236581;28;20036;-74
2022/09/07 01:39:10;;;;;;;7.47;6.63;;;14.80;99.90;;;;;;5236580;28;20040;-74
2022/09/07 01:41:53;;;;;;;9.05;6.20;;;14.90;99.90;;;;;;5220249;28;20036;-74
2022/09/07 01:44:59;;;;;;;8.70;6.50;;;14.80;99.90;;;;;;5203297;28;20346;-74
2022/09/07 01:47:42;;;;;;;;;;;14.80;99.90;;;;;;5182576;28;20053;-73
2022/09/07 01:50:37;;;;;;;7.72;6.72;;;14.80;99.90;;;;;;5228601;28;19908;-73
2022/09/07 01:53:25;;;;;;;7.65;6.85;;;14.90;99.90;;;;;;5200655;28;20105;-74
2022/09/07 01:56:21;;;;;;;7.90;6.65;;;14.90;99.90;;;;;;5202887;28;20036;-72
2022/09/07 01:59:06;;;;;;;9.27;7.50;;;14.90;99.90;;;;;;5219766;28;20032;-73
2022/09/07 02:01:49;;;;;;;7.47;6.47;;;14.90;99.90;;;;;;5220008;28;20040;-73
2022/09/07 02:04:35;;;;;;;7.95;6.85;;;14.80;99.90;;;;;;5197644;28;20048;-73
2022/09/07 02:07:38;;;;;;;11.48;6.95;;;14.70;99.90;;;;;;5186687;28;20033;-74
2022/09/07 02:10:28;;;;;;;8.73;6.68;;;14.70;99.90;;;;;;5194832;28;20047;-75
2022/09/07 02:13:15;;;;;;;9.30;6.88;;;14.60;99.90;;;;;;5200213;28;20028;-74
2022/09/07 02:16:02;;;;;;;9.55;7.20;;;14.60;99.90;;;;;;5184933;28;20043;-74
2022/09/07 02:18:46;;;;;;;9.15;6.57;;;14.60;99.90;;;;;;5201699;28;20359;-74
2022/09/07 02:21:26;;;;;;;8.90;7.28;;;14.60;99.90;;;;;;5195109;28;20033;-74
2022/09/07 02:24:27;;;;;;;8.52;7.13;;;14.60;99.90;;;;;;5183307;28;20047;-74
2022/09/07 02:27:07;;;;;;;8.93;7.70;;;14.50;99.90;;;;;;5216512;28;20051;-73
2022/09/07 02:29:42;;;;;;;8.23;7.00;;;14.50;99.90;;;;;;5193830;28;20041;-72
2022/09/07 02:32:17;;;;;;;9.50;7.13;;;14.50;99.90;;;;;;5201767;28;20024;-73
2022/09/07 02:34:51;;;;;;;9.32;7.72;;;14.50;99.90;;;;;;5201581;28;20060;-73
2022/09/07 02:37:27;;;;;;;8.95;6.47;;;14.50;99.90;;;;;;5221393;28;20636;-73
2022/09/07 02:40:01;;;;;;;8.73;7.05;;;14.50;99.90;;;;;;5200762;28;20463;-72
2022/09/07 02:42:37;;;;;;;10.90;7.55;;;14.50;99.90;;;;;;5217992;28;20055;-74
2022/09/07 02:45:13;;;;;;;9.18;7.60;;;14.50;99.90;;;;;;5202334;28;20025;-73
2022/09/07 02:48:15;;;;;;;10.00;7.80;;;14.40;99.90;;;;;;5202761;28;20041;-73
2022/09/07 02:51:14;;;;;;;10.65;7.57;;;14.40;99.90;;;;;;5206469;28;20108;-73
2022/09/07 02:54:10;;;;;;;9.43;7.97;;;14.40;99.90;;;;;;5209184;28;20522;-74
2022/09/07 02:57:10;;;;;;;10.10;7.00;;;14.40;99.90;;;;;;5195771;28;20049;-74
2022/09/07 03:00:19;;;;;;;8.95;6.97;;;14.30;99.90;;;;;;5200637;28;20067;-73
2022/09/07 03:03:20;;;;;;;8.38;7.40;;;14.30;99.90;;;;;;5188531;28;20051;-73
2022/09/07 03:06:02;;;;;;;11.68;7.80;;;14.40;99.90;;;;;;5154893;28;20057;-73
2022/09/07 03:08:40;;;;;;;10.15;7.10;;;14.30;99.90;;;;;;5185871;28;20029;-72
2022/09/07 03:11:19;;;;;;;10.93;8.02;;;14.30;99.90;;;;;;5201726;28;20041;-73
2022/09/07 03:14:19;;;;;;;11.15;7.55;;;14.20;99.90;;;;;;5195758;28;20033;-73
2022/09/07 03:16:59;;;;;;;10.07;7.55;;;14.20;99.90;;;;;;5225961;28;20036;-73
2022/09/07 03:19:33;;;;;;;8.43;7.55;;;14.30;99.90;;;;;;5200978;28;20044;-73
2022/09/07 03:22:08;;;;;;;11.60;7.53;;;14.30;99.90;;;;;;5219685;28;20212;-72
2022/09/07 03:24:45;;;;;;;10.55;7.70;;;14.30;99.90;;;;;;5220369;28;20288;-72
2022/09/07 03:27:16;;;;;;;9.63;7.60;;;14.20;99.90;;;;;;5212707;28;20041;-72
2022/09/07 03:29:50;;;;;;;9.98;7.05;;;14.20;99.90;;;;;;5180259;28;20035;-73
2022/09/07 03:32:22;;;;;;;10.55;7.60;;;14.20;99.90;;;;;;5221568;28;20048;-73
2022/09/07 03:34:53;;;;;;;9.68;7.90;;;14.10;99.90;;;;;;5204941;28;20047;-72
2022/09/07 03:37:29;;;;;;;11.88;8.60;;;14.10;99.90;;;;;;5222440;28;20029;-73
2022/09/07 03:40:06;;;;;;;10.85;7.90;;;14.10;99.90;;;;;;5219656;28;20052;-73
2022/09/07 03:42:40;;;;;;;12.93;8.98;;;14.10;99.90;;;;;;5198741;28;20218;-73
2022/09/07 03:45:12;;;;;;;10.38;8.65;;;14.00;99.90;;;;;;5230053;28;20037;-73
2022/09/07 03:47:46;;;;;;;11.25;8.57;;;14.10;99.90;;;;;;5201633;28;20045;-73
2022/09/07 03:50:27;;;;;;;12.00;7.95;;;14.10;99.90;;;;;;5186285;28;20041;-73
2022/09/07 03:53:02;;;;;;;9.45;7.88;;;14.10;99.90;;;;;;5218416;28;20058;-72
2022/09/07 03:55:33;;;;;;;10.95;8.90;;;14.10;99.90;;;;;;5219493;28;20033;-74
2022/09/07 03:58:04;;;;;;;11.63;9.13;;;14.10;99.90;;;;;;5217431;28;20032;-74
2022/09/07 04:00:40;;;;;;;10.25;8.45;;;14.10;99.90;;;;;;5217732;28;20041;-74
2022/09/07 04:03:11;;;;;;;13.43;9.15;;;14.00;99.90;;;;;;5181879;28;20049;-74
2022/09/07 04:05:51;;;;;;;13.10;8.85;;;14.10;99.90;;;;;;5200181;28;20041;-73
2022/09/07 04:08:31;;;;;;;11.75;8.75;;;14.00;99.90;;;;;;5201600;28;20452;-74
2022/09/07 04:11:07;;;;;;;12.60;9.15;;;14.10;99.90;;;;;;5209116;28;20044;-73
2022/09/07 04:13:39;;;;;;;15.80;9.73;;;14.10;99.90;;;;;;5211745;28;20036;-73
2022/09/07 04:16:27;;;;;;;11.38;9.05;;;14.20;99.90;;;;;;5198334;28;20116;-74
2022/09/07 04:19:04;;;;;;;13.73;9.30;;;14.10;99.90;;;;;;5217061;28;20044;-73
2022/09/07 04:21:38;;;;;;;12.43;9.30;;;14.10;99.90;;;;;;5199985;28;20052;-73
2022/09/07 04:24:10;;;;;;;13.20;10.38;;;14.10;99.90;;;;;;5218146;28;20036;-73
2022/09/07 04:26:42;;;;;;;14.23;10.40;;;14.20;99.90;;;;;;5200875;28;20044;-73
2022/09/07 04:29:14;;;;;;;12.63;8.95;;;14.20;99.90;;;;;;5217314;28;20039;-72
2022/09/07 04:31:47;;;;;;;13.98;9.88;;;14.10;99.90;;;;;;5183736;28;20029;-72
2022/09/07 04:34:19;;;;;;;13.95;10.20;;;14.10;99.90;;;;;;5200763;28;20040;-72
2022/09/07 04:36:55;;;;;;;13.57;9.95;;;14.10;99.90;;;;;;5218670;28;20037;-72
2022/09/07 04:39:27;;;;;;;12.50;9.93;;;14.20;99.90;;;;;;5213991;28;20041;-72
2022/09/07 04:42:02;;;;;;;11.90;9.02;;;14.30;99.90;;;;;;5193800;28;20246;-72
2022/09/07 04:44:38;;;;;;;13.85;10.13;;;14.30;99.90;;;;;;5216331;28;20041;-72
2022/09/07 04:47:14;;;;;;;13.68;10.40;;;14.40;99.90;;;;;;5218974;28;20032;-73
2022/09/07 04:49:52;;;;;;;12.30;9.32;;;14.40;99.90;;;;;;5217430;28;20032;-72
2022/09/07 04:52:28;;;;;;;13.63;10.25;;;14.40;99.90;;;;;;5199596;28;20571;-74
2022/09/07 04:55:03;;;;;;;13.23;9.20;;;14.50;99.90;;;;;;5183782;28;20043;-73
2022/09/07 04:57:35;;;;;;;13.95;9.52;;;14.60;99.90;;;;;;5218497;28;20353;-72
2022/09/07 05:00:09;;;;;;;13.10;10.13;;;14.60;99.90;;;;;;5214814;28;20037;-72
2022/09/07 05:02:43;;;;;;;13.57;10.77;;;14.60;99.90;;;;;;5212435;28;20028;-74
2022/09/07 05:05:15;;;;;;;13.88;10.55;;;14.60;99.90;;;;;;5202750;28;20049;-73
2022/09/07 05:07:46;;;;;;;14.27;10.52;;;14.70;99.90;;;;;;5211818;28;21282;-74
2022/09/07 05:10:23;;;;;;;14.38;11.10;;;14.80;99.90;;;;;;5198256;28;20290;-74
2022/09/07 05:12:54;;;;;;;13.52;9.52;;;15.00;99.90;;;;;;5197107;28;20045;-74
2022/09/07 05:15:37;;;;;;;15.77;10.95;;;15.10;99.90;;;;;;5195767;28;20041;-73
2022/09/07 05:18:12;;;;;;;17.55;11.75;;;15.40;99.90;;;;;;5196336;28;20037;-73
2022/09/07 05:20:47;;;;;;;13.80;10.68;;;15.50;99.90;;;;;;5181480;28;21053;-73
2022/09/07 05:23:21;;;;;;;;;;;15.70;99.90;;;;;;5198080;28;20051;-74
2022/09/07 05:25:56;;;;;;;13.73;10.98;;;15.80;99.90;;;;;;5186723;28;19920;-74
2022/09/07 05:28:32;;;;;;;16.15;11.13;;;16.00;99.90;;;;;;5195796;28;20265;-74
2022/09/07 05:31:19;;;;;;;11.25;8.73;;;16.20;99.90;;;;;;5192558;28;20041;-73
2022/09/07 05:33:58;;;;;;;14.82;9.20;;;16.40;99.90;;;;;;5200815;28;20037;-74
2022/09/07 05:36:30;;;;;;;10.70;8.25;;;16.80;99.90;;;;;;5202882;28;20048;-74
2022/09/07 05:39:06;;;;;;;10.43;8.88;;;17.00;99.90;;;;;;5211252;28;20048;-74
2022/09/07 05:41:39;;;;;;;11.95;8.10;;;17.30;99.90;;;;;;5198678;28;20044;-72
2022/09/07 05:44:12;;;;;;;10.48;7.60;;;17.40;99.90;;;;;;5199393;28;20033;-73
2022/09/07 05:46:47;;;;;;;10.40;8.50;;;17.50;99.90;;;;;;5180386;28;20246;-73
2022/09/07 05:49:18;;;;;;;9.13;7.53;;;17.60;99.90;;;;;;5204603;28;20071;-73
2022/09/07 05:51:50;;;;;;;8.40;6.78;;;18.00;99.90;;;;;;5191053;28;20039;-74
2022/09/07 05:54:25;;;;;;;9.38;7.10;;;18.30;99.90;;;;;;5208175;28;20051;-74
2022/09/07 05:57:05;;;;;;;9.85;8.30;;;18.70;99.90;;;;;;5202155;28;20037;-74
2022/09/07 05:59:39;;;;;;;10.20;8.05;;;18.70;99.90;;;;;;5180452;28;20053;-74
2022/09/07 06:02:14;;;;;;;9.20;7.05;;;18.80;99.90;;;;;;5206633;28;20041;-74
2022/09/07 06:04:46;;;;;;;8.27;6.82;;;19.00;99.90;;;;;;5198249;28;20672;-74
2022/09/07 06:07:21;;;;;;;8.43;6.35;;;19.40;99.90;;;;;;5211908;28;20048;-73
2022/09/07 06:09:52;;;;;;;10.75;6.93;;;19.50;99.90;;;;;;5182812;28;20039;-74
2022/09/07 06:12:28;;;;;;;8.10;6.57;;;19.80;99.90;;;;;;5204696;28;20206;-74
2022/09/07 06:15:04;;;;;;;10.30;6.90;;;20.00;99.90;;;;;;5203319;28;20587;-74
2022/09/07 06:17:39;;;;;;;10.77;6.50;;;20.10;99.90;;;;;;5202705;28;20037;-74
2022/09/07 06:20:11;;;;;;;7.13;6.05;;;20.00;99.90;;;;;;5201008;28;20044;-74
2022/09/07 06:22:48;;;;;;;8.57;7.32;;;19.70;99.90;;;;;;5205457;28;20338;-74
2022/09/07 06:25:25;;;;;;;7.95;6.60;;;19.30;99.90;;;;;;5206067;28;20037;-75
2022/09/07 06:28:02;;;;;;;8.98;7.05;;;19.30;99.90;;;;;;5184724;28;20091;-74
2022/09/07 06:30:34;;;;;;;9.18;6.90;;;19.50;99.90;;;;;;5207345;28;20024;-74
2022/09/07 06:33:08;;;;;;;7.35;6.65;;;19.80;99.90;;;;;;5182367;28;20045;-74
2022/09/07 06:35:39;;;;;;;8.98;6.78;;;20.00;99.90;;;;;;5172128;28;20044;-74
2022/09/07 06:38:11;;;;;;;10.05;7.53;;;20.00;99.90;;;;;;5195321;28;20052;-74
2022/09/07 06:40:43;;;;;;;8.00;6.35;;;20.20;99.90;;;;;;5194656;28;20188;-74
2022/09/07 06:43:15;;;;;;;7.75;6.78;;;20.60;99.90;;;;;;5219172;28;20092;-73
2022/09/07 06:45:55;;;;;;;8.50;7.10;;;20.80;99.90;;;;;;5203701;28;20368;-74
2022/09/07 06:48:38;;;;;;;8.02;7.10;;;20.80;99.90;;;;;;5213732;28;20043;-74
2022/09/07 06:51:18;;;;;;;7.53;5.47;;;21.00;99.90;;;;;;5220502;28;20037;-74
2022/09/07 06:53:50;;;;;;;8.30;6.38;;;21.70;99.90;;;;;;5182592;28;20056;-74
2022/09/07 06:56:26;;;;;;;7.47;6.30;;;21.50;99.90;;;;;;5209573;28;20033;-74
2022/09/07 06:58:58;;;;;;;11.10;6.45;;;21.90;99.90;;;;;;5202139;28;20047;-74
2022/09/07 07:01:32;;;;;;;7.55;6.10;;;22.50;99.90;;;;;;5218387;28;20031;-74
2022/09/07 07:04:04;;;;;;;9.68;6.25;;;22.80;99.90;;;;;;5204745;28;20037;-74
2022/09/07 07:06:41;;;;;;;9.73;6.25;;;23.30;99.90;;;;;;5234040;28;20075;-72
2022/09/07 07:09:13;;;;;;;7.38;6.00;;;23.50;99.90;;;;;;5199445;28;20027;-73
2022/09/07 07:11:46;;;;;;;6.72;5.95;;;22.90;99.90;;;;;;5201327;28;20345;-73
2022/09/07 07:14:20;;;;;;;7.45;5.25;;;22.90;99.90;;;;;;5219030;28;20098;-73
2022/09/07 07:16:56;;;;;;;8.18;6.35;;;23.40;99.90;;;;;;5219111;28;20616;-73
2022/09/07 07:19:33;;;;;;;6.32;5.40;;;23.60;99.90;;;;;;5185631;28;20020;-74
2022/09/07 07:22:05;;;;;;;6.30;5.55;;;24.00;99.90;;;;;;5215792;28;20049;-73
2022/09/07 07:24:37;;;;;;;5.95;4.53;;;24.10;99.90;;;;;;5201358;28;20047;-73
2022/09/07 07:27:08;;;;;;;6.40;5.18;;;24.20;99.90;;;;;;5209012;28;20036;-72
2022/09/07 07:29:46;;;;;;;8.57;6.40;;;24.20;99.90;;;;;;5198299;28;20031;-73
2022/09/07 07:32:18;;;;;;;7.88;5.75;;;23.80;99.90;;;;;;5203878;28;20021;-74
2022/09/07 07:34:51;;;;;;;7.75;6.18;;;23.90;99.90;;;;;;5189773;28;20045;-71
2022/09/07 07:37:26;;;;;;;9.35;6.15;;;24.10;99.90;;;;;;5189965;28;20060;-72
2022/09/07 07:40:07;;;;;;;8.20;6.03;;;24.00;99.90;;;;;;5181650;28;20044;-72
2022/09/07 07:42:40;;;;;;;7.63;5.50;;;24.10;99.90;;;;;;5179226;28;20048;-72
2022/09/07 07:45:14;;;;;;;6.80;5.40;;;24.40;99.90;;;;;;5183527;28;20045;-72
2022/09/07 07:47:51;;;;;;;7.70;6.43;;;24.40;99.90;;;;;;5201580;28;20025;-74
2022/09/07 07:50:26;;;;;;;6.82;6.07;;;24.30;99.90;;;;;;5191771;28;20035;-73
2022/09/07 07:52:58;;;;;;;8.07;6.50;;;24.20;99.90;;;;;;5218720;28;20031;-74
2022/09/07 07:55:32;;;;;;;8.73;5.93;;;23.80;99.90;;;;;;5199183;28;20075;-74
2022/09/07 07:58:06;;;;;;;6.85;5.63;;;23.90;99.90;;;;;;5211567;28;20526;-74
2022/09/07 08:00:41;;;;;;;;;;;24.20;99.90;;;;;;5227611;28;20040;-74
2022/09/07 08:03:17;;;;;;;7.22;5.30;;;24.20;99.90;;;;;;5204821;28;19920;-72
2022/09/07 08:05:49;;;;;;;8.50;5.53;;;24.40;99.90;;;;;;5208226;28;20091;-74
2022/09/07 08:08:22;;;;;;;6.28;5.40;;;24.70;99.90;;;;;;5200139;28;20029;-72
2022/09/07 08:10:53;;;;;;;7.22;5.82;;;24.70;99.90;;;;;;5216164;28;20039;-73
2022/09/07 08:13:29;;;;;;;8.50;5.95;;;24.90;99.90;;;;;;5213082;28;20045;-72
2022/09/07 08:16:04;;;;;;;7.93;6.32;;;25.10;99.90;;;;;;5214117;28;20036;-73
2022/09/07 08:18:37;;;;;;;7.10;5.78;;;25.40;99.90;;;;;;5218044;28;20060;-73
2022/09/07 08:21:18;;;;;;;9.63;6.63;;;25.60;99.90;;;;;;5220133;28;20025;-73
2022/09/07 08:23:50;;;;;;;8.50;6.25;;;25.10;99.90;;;;;;5201755;28;20740;-72
2022/09/07 08:26:22;;;;;;;8.00;6.35;;;24.30;99.90;;;;;;5201163;28;20068;-73
2022/09/07 08:28:56;;;;;;;7.70;6.82;;;24.50;99.90;;;;;;5211967;28;20076;-72
2022/09/07 08:31:28;;;;;;;9.07;6.30;;;24.60;99.90;;;;;;5213981;28;20049;-72
2022/09/07 08:34:00;;;;;;;9.10;6.63;;;25.10;99.90;;;;;;5219181;28;20031;-72
2022/09/07 08:36:34;;;;;;;7.03;5.60;;;25.20;99.90;;;;;;5196586;28;20047;-74
2022/09/07 08:39:09;;;;;;;5.93;4.82;;;25.40;99.90;;;;;;5170245;28;20580;-74
2022/09/07 08:42:08;;;;;;;7.22;5.85;;;25.40;99.90;;;;;;5178717;28;20041;-74
2022/09/07 08:45:02;;;;;;;7.65;6.18;;;25.90;99.90;;;;;;5215009;28;20448;-74
2022/09/07 08:47:51;;;;;;;8.93;5.63;;;25.10;99.90;;;;;;5196896;28;20402;-74
2022/09/07 08:51:04;;;;;;;6.55;5.43;;;26.00;99.90;;;;;;5213655;28;20045;-73
2022/09/07 08:53:45;;;;;;;6.90;5.30;;;26.60;99.90;;;;;;5192368;28;20036;-74
2022/09/07 08:56:39;;;;;;;7.53;5.70;;;27.00;99.90;;;;;;5183331;28;20056;-74
2022/09/07 08:59:38;;;;;;;7.05;4.38;;;27.20;99.90;;;;;;5205288;28;20027;-74
2022/09/07 09:02:18;;;;;;;6.00;5.15;;;27.40;99.90;;;;;;5206133;28;20045;-75
2022/09/07 09:04:54;;;;;;;5.28;4.78;;;26.90;99.90;;;;;;5168813;28;20055;-74
2022/09/07 09:07:46;;;;;;;5.50;4.78;;;27.40;99.90;;;;;;5201885;28;20597;-75
2022/09/07 09:10:35;;;;;;;5.90;4.65;;;26.80;99.90;;;;;;5219458;28;20467;-73
2022/09/07 09:13:43;;;;;;;9.07;4.97;;;27.20;99.90;;;;;;5231512;28;20044;-73
2022/09/07 09:16:45;;;;;;;6.20;3.90;;;27.10;99.90;;;;;;5223713;28;20040;-73
2022/09/07 09:19:41;;;;;;;6.50;4.97;;;27.90;99.90;;;;;;5216219;28;20048;-75
2022/09/07 09:22:21;;;;;;;6.45;5.30;;;27.70;99.90;;;;;;5221123;28;20044;-73
2022/09/07 09:25:21;;;;;;;7.30;4.30;;;28.40;99.90;;;;;;5222078;28;20025;-73
2022/09/07 09:27:56;;;;;;;4.80;4.30;;;28.50;99.90;;;;;;5223640;28;20035;-73
2022/09/07 09:30:28;;;;;;;5.18;3.85;;;28.40;99.90;;;;;;5226840;28;20128;-74
2022/09/07 09:33:17;;;;;;;6.40;3.92;;;28.10;99.90;;;;;;5221618;28;20036;-75
2022/09/07 09:35:54;;;;;;;4.22;3.83;;;28.70;99.90;;;;;;5239291;28;20050;-73
2022/09/07 09:38:33;;;;;;;5.80;4.22;;;28.80;99.90;;;;;;5222120;28;20033;-74
2022/09/07 09:41:10;;;;;;;5.60;5.03;;;29.10;99.90;;;;;;5221066;28;20044;-74
2022/09/07 09:43:54;;;;;;;4.53;4.13;;;28.50;99.90;;;;;;5221414;28;20030;-74
2022/09/07 09:46:38;;;;;;;4.72;4.22;;;28.40;99.90;;;;;;5204788;28;20542;-73
2022/09/07 09:49:32;;;;;;;7.80;5.20;;;28.70;99.90;;;;;;5202501;28;20055;-74
2022/09/07 09:52:20;;;;;;;5.18;4.35;;;29.40;99.90;;;;;;5221068;28;20367;-73
2022/09/07 09:54:55;;;;;;;6.00;5.28;;;29.90;99.90;;;;;;5221236;28;20047;-73
2022/09/07 09:57:52;;;;;;;5.15;4.63;;;30.40;99.90;;;;;;5246362;28;20028;-73
2022/09/07 10:00:27;;;;;;;3.83;3.30;;;30.40;99.90;;;;;;5226653;28;20038;-72
2022/09/07 10:03:06;;;;;;;;;;;30.10;99.90;;;;;;5214231;28;20036;-73
2022/09/07 10:05:41;;;;;;;4.25;3.78;;;30.30;99.90;;;;;;5207474;28;20371;-73
2022/09/07 10:08:31;;;;;;;4.80;4.18;;;30.30;99.90;;;;;;5215006;28;20037;-72
2022/09/07 10:11:06;;;;;;;6.60;4.05;;;30.90;99.90;;;;;;5213040;28;20044;-73
2022/09/07 10:13:48;;;;;;;6.05;3.80;;;30.10;99.90;;;;;;5214947;28;20041;-73
2022/09/07 10:16:39;;;;;;;5.60;3.80;;;30.30;99.90;;;;;;5208839;28;20033;-73
2022/09/07 10:19:34;;;;;;;3.63;3.33;;;30.50;99.90;;;;;;5216155;28;20035;-73
2022/09/07 10:22:58;;;;;;;4.50;4.10;;;31.80;99.90;;;;;;5203269;28;20394;-76
2022/09/07 10:25:47;;;;;;;4.80;4.25;;;31.90;99.90;;;;;;5137854;28;20034;-75
2022/09/07 10:28:22;;;;;;;3.17;2.85;;;30.90;99.90;;;;;;5153527;28;20049;-73
2022/09/07 10:31:30;;;;;;;4.25;3.85;;;32.10;99.90;;;;;;5154943;28;20057;-73
2022/09/07 10:34:53;;;;;;;5.50;3.63;;;32.80;99.90;;;;;;5145374;28;20050;-73
2022/09/07 10:38:15;;;;;;;3.40;3.10;;;33.40;99.90;;;;;;5148801;28;20061;-73
2022/09/07 10:41:03;;;;;;;4.78;3.90;;;34.60;99.90;;;;;;5135321;28;20041;-75
2022/09/07 10:43:51;;;;;;;3.50;3.20;;;34.70;99.90;;;;;;5133150;28;20045;-73
2022/09/07 10:46:50;;;;;;;4.45;3.50;;;35.40;99.90;;;;;;5153035;28;20046;-74
2022/09/07 10:49:44;;;;;;;6.13;3.95;;;35.90;99.90;;;;;;5136710;28;20050;-73
2022/09/07 10:52:56;;;;;;;5.18;4.40;;;34.70;99.90;;;;;;5152545;28;20044;-73
2022/09/07 10:55:39;;;;;;;5.28;4.40;;;35.70;99.90;;;;;;5168527;28;20028;-73
2022/09/07 10:58:24;;;;;;;4.33;3.13;;;34.00;99.90;;;;;;5214560;28;20028;-73
2022/09/07 11:01:35;;;;;;;4.55;3.88;;;34.90;99.90;;;;;;5209991;28;20274;-73
2022/09/07 11:04:30;;;;;;;3.40;3.10;;;35.70;99.90;;;;;;5212390;28;20045;-73
2022/09/07 11:07:40;;;;;;;;;;;37.20;99.90;;;;;;5209599;28;20071;-74
2022/09/07 11:10:23;;;;;;;4.05;3.70;;;37.90;99.90;;;;;;5207666;28;20539;-74
2022/09/07 11:13:01;;;;;;;3.40;3.10;;;37.50;99.90;;;;;;5238218;28;20520;-74
2022/09/07 11:15:45;;;;;;;6.35;4.28;;;38.30;99.90;;;;;;5223626;28;20052;-73
2022/09/07 11:18:29;;;;;;;4.30;3.90;;;38.30;99.90;;;;;;5216122;28;20040;-73
2022/09/07 11:21:15;;;;;;;4.60;4.03;;;37.90;99.90;;;;;;5217919;28;20036;-73
2022/09/07 11:23:55;;;;;;;4.40;4.00;;;39.30;99.90;;;;;;5206931;28;20036;-73
2022/09/07 11:26:40;;;;;;;4.32;3.63;;;37.20;99.90;;;;;;5214784;28;20048;-73
2022/09/07 11:29:48;;;;;;;4.28;3.30;;;37.20;99.90;;;;;;5203538;28;20039;-75
2022/09/07 11:32:30;;;;;;;6.03;3.35;;;38.90;99.90;;;;;;5212942;28;20037;-75
2022/09/07 11:35:05;;;;;;;3.85;3.55;;;40.10;99.90;;;;;;5220820;28;20031;-74
2022/09/07 11:37:58;;;;;;;4.43;3.97;;;40.10;99.90;;;;;;5211511;28;20043;-73
2022/09/07 11:40:33;;;;;;;3.83;3.53;;;40.40;99.90;;;;;;5224772;28;20028;-74
2022/09/07 11:43:27;;;;;;;4.05;3.70;;;40.10;99.90;;;;;;5222444;28;20066;-76
2022/09/07 11:46:22;;;;;;;3.65;3.35;;;40.00;99.90;;;;;;5222797;28;20040;-75
2022/09/07 11:48:57;;;;;;;3.53;3.22;;;38.10;99.90;;;;;;5222561;28;20040;-75
2022/09/07 11:51:45;;;;;;;3.92;3.38;;;37.80;99.90;;;;;;5232761;28;20373;-74
2022/09/07 11:54:58;;;;;;;3.72;3.42;;;39.70;99.90;;;;;;5219684;28;20067;-75
2022/09/07 11:57:48;;;;;;;3.65;3.35;;;39.20;99.90;;;;;;5236382;28;20048;-73
2022/09/07 12:00:30;;;;;;;4.05;3.47;;;38.00;99.90;;;;;;5233959;28;20382;-72
2022/09/07 12:03:22;;;;;;;3.45;3.15;;;38.90;99.90;;;;;;5231150;28;20413;-74
2022/09/07 12:06:15;;;;;;;3.90;3.60;;;39.40;99.90;;;;;;5211622;28;20671;-74
2022/09/07 12:09:08;;;;;;;5.32;3.65;;;39.80;99.90;;;;;;5237954;28;20028;-73
2022/09/07 12:12:42;;;;;;;4.47;3.40;;;39.40;99.90;;;;;;5237977;28;20051;-73
2022/09/07 12:15:36;;;;;;;7.45;3.70;;;39.40;99.90;;;;;;5227246;28;20071;-75
2022/09/07 12:18:20;;;;;;;4.20;3.35;;;40.80;99.90;;;;;;5240726;28;20042;-76
2022/09/07 12:20:54;;;;;;;4.50;4.10;;;40.10;99.90;;;;;;5238132;28;20032;-73
2022/09/07 12:23:32;;;;;;;3.15;2.85;;;37.40;99.90;;;;;;5226815;28;20040;-73
2022/09/07 12:26:32;;;;;;;4.00;3.47;;;37.80;99.90;;;;;;5240249;28;20032;-73
2022/09/07 12:29:18;;;;;;;3.55;3.13;;;38.60;99.90;;;;;;5224020;28;20051;-73
2022/09/07 12:31:55;;;;;;;4.05;3.35;;;40.00;99.90;;;;;;5203377;28;20044;-74
2022/09/07 12:34:29;;;;;;;3.70;3.30;;;40.90;99.90;;;;;;5217543;28;20040;-73
2022/09/07 12:37:25;;;;;;;4.13;3.65;;;40.30;99.90;;;;;;5239956;28;20039;-73
2022/09/07 12:40:34;;;;;;;3.60;3.30;;;39.80;99.90;;;;;;5237657;28;20021;-75
2022/09/07 12:43:46;;;;;;;3.58;3.03;;;40.70;99.90;;;;;;5221932;28;20032;-72
2022/09/07 12:46:38;;;;;;;3.40;3.10;;;40.90;99.90;;;;;;5205438;28;20057;-72
2022/09/07 12:49:20;;;;;;;4.28;3.33;;;41.80;98.70;;;;;;5237769;28;20262;-76
2022/09/07 12:52:00;;;;;;;4.20;3.25;;;41.10;99.10;;;;;;5231317;28;20049;-74
2022/09/07 12:55:11;;;;;;;5.10;3.20;;;40.60;98.80;;;;;;5232310;28;20044;-73
2022/09/07 12:57:57;;;;;;;4.07;3.67;;;41.40;98.60;;;;;;5218432;28;20086;-73
2022/09/07 13:00:56;;;;;;;4.38;3.17;;;41.70;97.90;;;;;;5240721;28;20047;-73
2022/09/07 13:03:47;;;;;;;5.15;3.10;;;40.90;98.00;;;;;;5218859;28;20112;-74
2022/09/07 13:06:53;;;;;;;4.25;3.10;;;39.70;98.40;;;;;;5191893;28;20067;-75
2022/09/07 13:09:41;;;;;;;4.60;3.33;;;39.50;98.80;;;;;;5232607;28;20039;-74
2022/09/07 13:12:50;;;;;;;4.03;3.72;;;39.80;98.60;;;;;;5235638;28;20036;-74
2022/09/07 13:16:05;;;;;;;3.50;3.20;;;37.80;99.50;;;;;;5220236;28;20386;-74
2022/09/07 13:18:41;;;;;;;4.03;3.03;;;35.50;99.90;;;;;;5238201;28;20403;-74
2022/09/07 13:21:16;;;;;;;3.40;3.08;;;36.80;99.90;;;;;;5251000;28;20032;-74
2022/09/07 13:24:15;;;;;;;4.10;2.90;;;38.60;99.40;;;;;;5229094;28;20028;-74
2022/09/07 13:27:24;;;;;;;3.78;3.25;;;39.90;98.60;;;;;;5238626;28;20413;-75
2022/09/07 13:30:21;;;;;;;3.78;3.13;;;40.90;97.50;;;;;;5235993;28;20032;-73
2022/09/07 13:33:28;;;;;;;3.38;3.00;;;41.40;96.90;;;;;;5210392;28;20520;-72
2022/09/07 13:36:05;;;;;;;3.50;3.20;;;39.70;97.70;;;;;;5226351;28;20067;-73
2022/09/07 13:38:48;;;;;;;4.35;3.58;;;39.60;97.70;;;;;;5217364;28;20625;-73
2022/09/07 13:41:42;;;;;;;3.80;3.22;;;39.60;97.80;;;;;;5207308;28;20361;-73
2022/09/07 13:44:33;;;;;;;5.00;3.15;;;38.30;98.60;;;;;;5205812;28;20039;-73
2022/09/07 13:47:08;;;;;;;3.95;3.58;;;36.90;99.80;;;;;;5233658;28;20050;-74
2022/09/07 13:49:49;;;;;;;3.38;3.08;;;36.00;99.90;;;;;;5240682;28;20040;-74
2022/09/07 13:52:35;;;;;;;5.35;3.15;;;34.40;99.90;;;;;;5220778;28;20136;-74
2022/09/07 13:55:20;;;;;;;5.43;3.60;;;34.10;99.90;;;;;;5227688;28;20053;-73
2022/09/07 13:58:28;;;;;;;3.35;3.05;;;34.10;99.90;;;;;;5225721;28;20546;-73
2022/09/07 14:01:25;;;;;;;3.50;3.20;;;34.30;99.90;;;;;;5193381;28;20045;-72
2022/09/07 14:04:08;;;;;;;3.10;2.85;;;34.30;99.90;;;;;;5183416;28;20049;-72
2022/09/07 14:06:39;;;;;;;5.82;3.00;;;34.20;99.90;;;;;;5193500;28;20056;-72